Darstellungsparameter: Aktuell verwendete Einstellungen:
Skalierung der Graphiken ... ?
xyx+y,   Skalierungsfaktor:      Skalierung: Modus: x, Faktor: 1
Darstellungszeitraum ... ?
Vom - - bis: - -   Zeitraum: 15.05.2010 - 21.05.2010
Min/Max/Avg-Anzeige ... ?
Zeige MMA aktuell
Zeige MMA Monat
Zeige MMA alles
Zeige --A aktuell
Zeige --A Monat
Zeige --A alles
Keine MMA-Anzeige
MMA:
Average (ber die Originaldaten)
MMA-Basis: 15.05.2010 - 21.05.2010
Quicknavigation für Darstellung... ?
Tage:      1T, 2T, 3T, 5T -1T -2T -3T -5T +1T +2T +3T +5T
Wochen: 1W, 2W, 3W -1W -2W -3W +1W +2W +3W
Monate: 1M, 3M, 6M -1M -3M -6M +1M +3M +6M
Jahre:    1J, 3J, 5J, 10J -1J -3J -5J -10J +1J +3J +5J +10J
Nutze für die Darstellung ... ?
Originaldaten oder Mittelwerte auf ...
Stundenbasis Tagesbasis Wochenbasis
Monatsbasis Jahresbasis      Datenbasis: Original-Daten
Darstellen als:
Statistik (Auto) Statistik J:M      Darstellung:
Zur Graphik,    zurück zur Übersicht aller Sensoren.
 
Tabellarische Datenbersicht: ?
 
Sensor: Nr:Datum:Temp:Abs-Feuchte:Windchill:Wind:
Aussen-T/F 1 15-05-2010 00:07:03 8 C 7.19 g/m*3 8 C 0 km/h
2 15-05-2010 00:19:03 8 C 7.19 g/m*3 8 C 0 km/h
3 15-05-2010 00:31:04 7.9 C 7.23 g/m*3 7.9 C 0 km/h
4 15-05-2010 00:43:04 7.8 C 7.18 g/m*3 7.8 C 0 km/h
5 15-05-2010 00:55:04 7.8 C 7.18 g/m*3 7.8 C 0 km/h
6 15-05-2010 01:07:04 7.9 C 7.23 g/m*3 7.9 C 0 km/h
7 15-05-2010 01:19:04 7.8 C 7.18 g/m*3 7.8 C 0 km/h
8 15-05-2010 01:31:04 7.6 C 7.09 g/m*3 7.6 C 0 km/h
9 15-05-2010 01:43:04 7.6 C 7.09 g/m*3 7.6 C 0 km/h
10 15-05-2010 01:55:04 7.6 C 7.09 g/m*3 7.6 C 0 km/h
11 15-05-2010 02:07:04 7.5 C 7.04 g/m*3 7.5 C 0 km/h
12 15-05-2010 02:19:04 7.5 C 7.12 g/m*3 7.5 C 0 km/h
13 15-05-2010 02:31:04 7.6 C 7.17 g/m*3 7.6 C 0 km/h
14 15-05-2010 02:43:04 7.8 C 7.26 g/m*3 7.8 C 0 km/h
15 15-05-2010 02:55:04 7.8 C 7.26 g/m*3 7.8 C 0 km/h
16 15-05-2010 03:07:04 7.6 C 7.17 g/m*3 7.6 C 0 km/h
17 15-05-2010 03:19:04 7.6 C 7.17 g/m*3 7.6 C 0 km/h
18 15-05-2010 03:31:04 7.6 C 7.25 g/m*3 7.6 C 0 km/h
19 15-05-2010 03:43:04 7.6 C 7.25 g/m*3 7.6 C 0 km/h
20 15-05-2010 03:55:04 7.6 C 7.25 g/m*3 7.6 C 0 km/h
21 15-05-2010 04:07:04 7.6 C 7.25 g/m*3 7.6 C 0 km/h
22 15-05-2010 04:19:04 7.7 C 7.3 g/m*3 7.7 C 0 km/h
23 15-05-2010 04:31:04 7.6 C 7.25 g/m*3 7.6 C 0 km/h
24 15-05-2010 04:43:05 7.6 C 7.25 g/m*3 7.6 C 0 km/h
25 15-05-2010 04:55:05 7.5 C 7.2 g/m*3 7.5 C 0 km/h
Sensor: Nr:Datum:Temp:Abs-Feuchte:Windchill:Wind:
Aussen-T/F 26 15-05-2010 05:07:05 7.4 C 7.24 g/m*3 7.4 C 0 km/h
27 15-05-2010 05:19:05 7.3 C 7.19 g/m*3 7.3 C 0 km/h
28 15-05-2010 05:31:05 7.3 C 7.19 g/m*3 7.3 C 0 km/h
29 15-05-2010 05:43:05 7.2 C 7.14 g/m*3 7.2 C 0 km/h
30 15-05-2010 05:55:05 7.1 C 7.1 g/m*3 7.1 C 0 km/h
31 15-05-2010 06:07:05 7.1 C 7.1 g/m*3 7.1 C 0 km/h
32 15-05-2010 06:19:05 7.1 C 7.1 g/m*3 7.1 C 0 km/h
33 15-05-2010 06:31:05 7.1 C 7.18 g/m*3 7.1 C 0 km/h
34 15-05-2010 06:43:05 7.1 C 7.18 g/m*3 7.1 C 0 km/h
35 15-05-2010 06:55:05 7.1 C 7.18 g/m*3 7.1 C 0 km/h
36 15-05-2010 07:07:05 7.1 C 7.18 g/m*3 7.1 C 0 km/h
37 15-05-2010 07:19:05 7.4 C 7.32 g/m*3 7.4 C 0 km/h
38 15-05-2010 07:31:05 7.5 C 7.36 g/m*3 7.5 C 0 km/h
39 15-05-2010 07:43:05 7.8 C 7.51 g/m*3 7.8 C 0 km/h
40 15-05-2010 07:55:02 8.2 C 7.62 g/m*3 8.2 C 0 km/h
41 15-05-2010 08:07:02 8.3 C 7.59 g/m*3 8.3 C 0 km/h
42 15-05-2010 08:19:02 8.2 C 7.29 g/m*3 8.2 C 0 km/h
43 15-05-2010 08:31:03 8.6 C 7.39 g/m*3 8.6 C 0 km/h
44 15-05-2010 08:43:03 8.5 C 7 g/m*3 8.5 C 0 km/h
45 15-05-2010 08:55:02 8.8 C 7.05 g/m*3 8.8 C 0 km/h
46 15-05-2010 09:07:02 9 C 6.88 g/m*3 9 C 0 km/h
47 15-05-2010 09:19:02 9.3 C 6.92 g/m*3 9.3 C 0 km/h
48 15-05-2010 09:31:02 9.5 C 6.83 g/m*3 9.5 C 0 km/h
49 15-05-2010 09:43:02 9.6 C 6.78 g/m*3 9.6 C 0 km/h
50 15-05-2010 09:55:01 10 C 6.67 g/m*3 10 C 0 km/h
Sensor: Nr:Datum:Temp:Abs-Feuchte:Windchill:Wind:
Aussen-T/F 51 15-05-2010 10:07:02 10.5 C 6.6 g/m*3 10.5 C 0 km/h
52 15-05-2010 10:19:01 10.7 C 6.48 g/m*3 10.7 C 0 km/h
53 15-05-2010 10:31:02 10.6 C 6.34 g/m*3 10.6 C 0 km/h
54 15-05-2010 10:43:02 11.1 C 6.35 g/m*3 11.1 C 0 km/h
55 15-05-2010 10:55:02 11.1 C 6.35 g/m*3 11.1 C 0 km/h
56 15-05-2010 11:07:02 10.9 C 6.27 g/m*3 10.9 C 0 km/h
57 15-05-2010 11:19:01 10.8 C 6.23 g/m*3 10.8 C 0 km/h
58 15-05-2010 11:31:02 10.9 C 6.17 g/m*3 10.9 C 0 km/h
59 15-05-2010 11:43:02 11.5 C 5.89 g/m*3 11.5 C 0 km/h
60 15-05-2010 11:55:02 11.9 C 6.04 g/m*3 11.9 C 0 km/h
61 15-05-2010 12:07:02 11.2 C 5.68 g/m*3 11.2 C 0 km/h
62 15-05-2010 12:19:02 11.1 C 5.64 g/m*3 11.1 C 0 km/h
63 15-05-2010 12:31:02 11.2 C 5.57 g/m*3 11.2 C 0 km/h
64 15-05-2010 12:43:02 12.4 C 5.46 g/m*3 12.4 C 0 km/h
65 15-05-2010 12:55:02 12.3 C 4.78 g/m*3 12.3 C 0 km/h
66 15-05-2010 13:07:02 13.9 C 5.04 g/m*3 13.9 C 0 km/h
67 15-05-2010 13:19:03 12 C 4.58 g/m*3 12 C 0 km/h
68 15-05-2010 13:31:02 11.1 C 5.14 g/m*3 11.1 C 0 km/h
69 15-05-2010 13:43:02 11.2 C 4.87 g/m*3 11.2 C 0 km/h
70 15-05-2010 13:55:02 12.1 C 4.5 g/m*3 12.1 C 0 km/h
71 15-05-2010 14:07:02 13.7 C 4.5 g/m*3 13.7 C 0 km/h
72 15-05-2010 14:19:02 15 C 4.62 g/m*3 15 C 0 km/h
73 15-05-2010 14:31:02 14.7 C 4.15 g/m*3 14.7 C 0 km/h
74 15-05-2010 14:43:02 14 C 3.98 g/m*3 14 C 0 km/h
75 15-05-2010 14:55:01 13.9 C 3.72 g/m*3 13.9 C 0 km/h
Sensor: Nr:Datum:Temp:Abs-Feuchte:Windchill:Wind:
Aussen-T/F 76 15-05-2010 15:07:01 14.3 C 3.56 g/m*3 14.3 C 0 km/h
77 15-05-2010 15:19:01 15.2 C 3.24 g/m*3 15.2 C 0 km/h
78 15-05-2010 15:31:01 15.8 C 2.69 g/m*3 15.8 C 0 km/h
79 15-05-2010 15:43:01 16 C 2.72 g/m*3 16 C 0 km/h
80 15-05-2010 15:55:01 16.2 C 2.76 g/m*3 16.2 C 0 km/h
81 15-05-2010 16:07:02 16.2 C 2.76 g/m*3 16.2 C 0 km/h
82 15-05-2010 16:19:01 15.1 C 2.58 g/m*3 15.1 C 0 km/h
83 15-05-2010 16:31:01 14.4 C 2.47 g/m*3 14.4 C 0 km/h
84 15-05-2010 16:43:01 14.4 C 2.97 g/m*3 14.4 C 0 km/h
85 15-05-2010 16:55:01 13.8 C 2.98 g/m*3 13.8 C 0 km/h
86 15-05-2010 17:07:02 13.9 C 3.12 g/m*3 13.9 C 0 km/h
87 15-05-2010 17:19:01 14 C 3.02 g/m*3 14 C 0 km/h
88 15-05-2010 17:31:02 14.1 C 3.16 g/m*3 14.1 C 0 km/h
89 15-05-2010 17:43:02 14 C 3.26 g/m*3 14 C 0 km/h
90 15-05-2010 17:55:02 14 C 3.26 g/m*3 14 C 0 km/h
91 15-05-2010 18:07:02 13.7 C 3.43 g/m*3 13.7 C 0 km/h
92 15-05-2010 18:19:01 14 C 3.62 g/m*3 14 C 0 km/h
93 15-05-2010 18:31:02 13.8 C 3.46 g/m*3 13.8 C 0 km/h
94 15-05-2010 18:43:02 13.7 C 3.43 g/m*3 13.7 C 0 km/h
95 15-05-2010 18:55:02 13.9 C 3.36 g/m*3 13.9 C 0 km/h
96 15-05-2010 19:07:02 13.9 C 3.24 g/m*3 13.9 C 0 km/h
97 15-05-2010 19:19:02 14.6 C 3.5 g/m*3 14.6 C 0 km/h
98 15-05-2010 19:31:02 15.1 C 3.23 g/m*3 15.1 C 0 km/h
99 15-05-2010 19:43:02 14.9 C 3.44 g/m*3 14.9 C 0 km/h
100 15-05-2010 19:55:02 14.4 C 3.58 g/m*3 14.4 C 0 km/h
Sensor: Nr:Datum:Temp:Abs-Feuchte:Windchill:Wind:
Aussen-T/F 101 15-05-2010 20:07:02 13.9 C 4.2 g/m*3 13.9 C 0 km/h
102 15-05-2010 20:19:02 13.3 C 4.62 g/m*3 13.3 C 0 km/h
103 15-05-2010 20:31:02 12.4 C 4.48 g/m*3 12.4 C 0 km/h
104 15-05-2010 20:43:02 11.6 C 4.47 g/m*3 11.6 C 0 km/h
105 15-05-2010 20:55:02 11.3 C 4.59 g/m*3 11.3 C 0 km/h
106 15-05-2010 21:07:02 11.4 C 4.62 g/m*3 11.4 C 0 km/h
107 15-05-2010 21:19:02 11.1 C 4.53 g/m*3 11.1 C 0 km/h
108 15-05-2010 21:31:02 10.8 C 4.55 g/m*3 10.8 C 0 km/h
109 15-05-2010 21:43:02 10.8 C 4.84 g/m*3 10.8 C 0 km/h
110 15-05-2010 21:55:01 10.8 C 4.84 g/m*3 10.8 C 0 km/h
111 15-05-2010 22:07:02 10.8 C 4.94 g/m*3 10.8 C 0 km/h
112 15-05-2010 22:19:02 11 C 5 g/m*3 11 C 0 km/h
113 15-05-2010 22:32:02 11.1 C 4.83 g/m*3 11.1 C 0 km/h
114 15-05-2010 22:44:03 11.2 C 4.66 g/m*3 11.2 C 0 km/h
115 15-05-2010 22:56:03 11.2 C 4.66 g/m*3 11.2 C 0 km/h
116 15-05-2010 23:08:03 11.1 C 4.73 g/m*3 11.1 C 0 km/h
117 15-05-2010 23:20:03 10.9 C 4.97 g/m*3 10.9 C 0 km/h
118 15-05-2010 23:32:03 10.9 C 5.07 g/m*3 10.9 C 0 km/h
119 15-05-2010 23:44:03 10.8 C 5.04 g/m*3 10.8 C 0 km/h
120 15-05-2010 23:56:03 10.5 C 5.04 g/m*3 10.5 C 0 km/h
121 16-05-2010 00:08:03 10.2 C 5.04 g/m*3 10.2 C 0 km/h
122 16-05-2010 00:20:03 10.1 C 5.3 g/m*3 10.1 C 0 km/h
123 16-05-2010 00:32:03 10.1 C 5.39 g/m*3 10.1 C 0 km/h
124 16-05-2010 00:44:03 10 C 5.45 g/m*3 10 C 0 km/h
125 16-05-2010 00:56:03 10.1 C 5.48 g/m*3 10.1 C 0 km/h
Sensor: Nr:Datum:Temp:Abs-Feuchte:Windchill:Wind:
Aussen-T/F 126 16-05-2010 01:08:03 10 C 5.54 g/m*3 10 C 0 km/h
127 16-05-2010 01:20:03 9.7 C 5.62 g/m*3 9.7 C 0 km/h
128 16-05-2010 01:32:03 9.3 C 5.66 g/m*3 9.3 C 0 km/h
129 16-05-2010 01:44:03 9 C 5.64 g/m*3 9 C 0 km/h
130 16-05-2010 01:56:03 8.7 C 5.88 g/m*3 8.7 C 0 km/h
131 16-05-2010 02:08:03 8.4 C 5.85 g/m*3 8.4 C 0 km/h
132 16-05-2010 02:20:03 8.2 C 5.86 g/m*3 8.2 C 0 km/h
133 16-05-2010 02:32:03 8 C 5.87 g/m*3 8 C 0 km/h
134 16-05-2010 02:44:04 7.8 C 5.96 g/m*3 7.8 C 0 km/h
135 16-05-2010 02:56:04 7.8 C 5.88 g/m*3 7.8 C 0 km/h
136 16-05-2010 03:08:04 7.6 C 5.88 g/m*3 7.6 C 0 km/h
137 16-05-2010 03:20:04 7.4 C 5.88 g/m*3 7.4 C 0 km/h
138 16-05-2010 03:32:04 7.4 C 5.88 g/m*3 7.4 C 0 km/h
139 16-05-2010 03:44:04 7.5 C 5.92 g/m*3 7.5 C 0 km/h
140 16-05-2010 03:56:04 7.5 C 5.92 g/m*3 7.5 C 0 km/h
141 16-05-2010 04:08:04 7.6 C 5.96 g/m*3 7.6 C 0 km/h
142 16-05-2010 04:20:04 7.6 C 5.88 g/m*3 7.6 C 0 km/h
143 16-05-2010 04:32:04 7.6 C 5.96 g/m*3 7.6 C 0 km/h
144 16-05-2010 04:44:04 7.6 C 5.96 g/m*3 7.6 C 0 km/h
145 16-05-2010 04:56:04 7.6 C 5.96 g/m*3 7.6 C 0 km/h
146 16-05-2010 05:08:04 7.6 C 5.96 g/m*3 7.6 C 0 km/h
147 16-05-2010 05:20:04 7.5 C 5.92 g/m*3 7.5 C 0 km/h
148 16-05-2010 05:32:04 7.2 C 5.89 g/m*3 7.2 C 0 km/h
149 16-05-2010 05:44:04 7 C 5.89 g/m*3 7 C 0 km/h
150 16-05-2010 05:56:04 7.2 C 5.97 g/m*3 7.2 C 0 km/h
Sensor: Nr:Datum:Temp:Abs-Feuchte:Windchill:Wind:
Aussen-T/F 151 16-05-2010 06:08:04 7.4 C 6.04 g/m*3 7.4 C 0 km/h
152 16-05-2010 06:20:04 7.4 C 5.96 g/m*3 7.4 C 0 km/h
153 16-05-2010 06:32:04 7.4 C 5.96 g/m*3 7.4 C 0 km/h
154 16-05-2010 06:44:04 7.4 C 5.96 g/m*3 7.4 C 0 km/h
155 16-05-2010 06:56:05 7.5 C 6 g/m*3 7.5 C 0 km/h
156 16-05-2010 07:08:05 7.7 C 6.08 g/m*3 7.7 C 0 km/h
157 16-05-2010 07:20:05 7.8 C 6.04 g/m*3 7.8 C 0 km/h
158 16-05-2010 07:32:05 7.9 C 6.08 g/m*3 7.9 C 0 km/h
159 16-05-2010 07:44:05 7.9 C 6.08 g/m*3 7.9 C 0 km/h
160 16-05-2010 07:56:05 7.9 C 6.08 g/m*3 7.9 C 0 km/h
161 16-05-2010 08:08:05 8 C 6.04 g/m*3 8 C 0 km/h
162 16-05-2010 08:20:05 8.2 C 6.2 g/m*3 8.2 C 0 km/h
163 16-05-2010 08:32:05 8.7 C 6.14 g/m*3 8.7 C 0 km/h
164 16-05-2010 08:44:05 9.1 C 6.03 g/m*3 9.1 C 0 km/h
165 16-05-2010 08:56:05 9.6 C 6.05 g/m*3 9.6 C 0 km/h
166 16-05-2010 09:08:02 10.2 C 5.8 g/m*3 10.2 C 0 km/h
167 16-05-2010 09:20:01 10.6 C 4.98 g/m*3 10.6 C 0 km/h
168 16-05-2010 09:32:02 11 C 4.7 g/m*3 11 C 0 km/h
169 16-05-2010 09:44:02 11.3 C 4.39 g/m*3 11.3 C 0 km/h
170 16-05-2010 09:56:02 11.7 C 4.39 g/m*3 11.7 C 0 km/h
171 16-05-2010 10:08:02 11.9 C 4.24 g/m*3 11.9 C 0 km/h
172 16-05-2010 10:20:01 12.2 C 4.1 g/m*3 12.2 C 0 km/h
173 16-05-2010 10:32:02 12.4 C 4.15 g/m*3 12.4 C 0 km/h
174 16-05-2010 10:44:02 13 C 4.31 g/m*3 13 C 0 km/h
175 16-05-2010 10:56:01 13.3 C 4.16 g/m*3 13.3 C 0 km/h
Sensor: Nr:Datum:Temp:Abs-Feuchte:Windchill:Wind:
Aussen-T/F 176 16-05-2010 11:08:02 13.7 C 4.03 g/m*3 13.7 C 0 km/h
177 16-05-2010 11:20:02 14.3 C 4.05 g/m*3 14.3 C 0 km/h
178 16-05-2010 11:32:02 15.4 C 4.07 g/m*3 15.4 C 0 km/h
179 16-05-2010 11:44:02 15.4 C 3.94 g/m*3 15.4 C 0 km/h
180 16-05-2010 11:56:01 15.4 C 3.81 g/m*3 15.4 C 0 km/h
181 16-05-2010 12:08:02 15.9 C 3.52 g/m*3 15.9 C 0 km/h
182 16-05-2010 12:20:02 16.1 C 3.84 g/m*3 16.1 C 0 km/h
183 16-05-2010 12:32:02 17.9 C 3.82 g/m*3 17.9 C 0 km/h
184 16-05-2010 12:44:02 17.2 C 3.37 g/m*3 17.2 C 0 km/h
185 16-05-2010 12:56:01 16.1 C 3.43 g/m*3 16.1 C 0 km/h
186 16-05-2010 13:08:02 18.3 C 3.6 g/m*3 18.3 C 0 km/h
187 16-05-2010 13:20:02 17.3 C 3.39 g/m*3 17.3 C 0 km/h
188 16-05-2010 13:32:01 17.4 C 3.41 g/m*3 17.4 C 0 km/h
189 16-05-2010 13:44:01 18 C 3.69 g/m*3 18 C 0 km/h
190 16-05-2010 13:56:02 17.3 C 3.54 g/m*3 17.3 C 0 km/h
191 16-05-2010 14:08:01 16.7 C 3.55 g/m*3 16.7 C 0 km/h
192 16-05-2010 14:20:02 18.4 C 3.93 g/m*3 18.4 C 0 km/h
193 16-05-2010 14:32:02 18.4 C 3.3 g/m*3 18.4 C 0 km/h
194 16-05-2010 14:44:02 17.9 C 3.51 g/m*3 17.9 C 0 km/h
195 16-05-2010 14:56:02 18.2 C 3.42 g/m*3 18.2 C 0 km/h
196 16-05-2010 15:08:02 19 C 3.26 g/m*3 19 C 0 km/h
197 16-05-2010 15:20:02 19.3 C 3.32 g/m*3 19.3 C 0 km/h
198 16-05-2010 15:32:02 19.8 C 3.42 g/m*3 19.8 C 0 km/h
199 16-05-2010 15:44:02 19.1 C 3.28 g/m*3 19.1 C 0 km/h
200 16-05-2010 15:56:02 20.3 C 3.52 g/m*3 20.3 C 0 km/h
Sensor: Nr:Datum:Temp:Abs-Feuchte:Windchill:Wind:
Aussen-T/F 201 16-05-2010 16:08:02 21 C 3.66 g/m*3 21 C 0 km/h
202 16-05-2010 16:20:01 20.1 C 3.48 g/m*3 20.1 C 0 km/h
203 16-05-2010 16:32:02 20.4 C 3.54 g/m*3 20.4 C 0 km/h
204 16-05-2010 16:44:02 20 C 3.46 g/m*3 20 C 0 km/h
205 16-05-2010 16:56:02 21.2 C 3.71 g/m*3 21.2 C 0 km/h
206 16-05-2010 17:08:02 21.7 C 3.82 g/m*3 21.7 C 0 km/h
207 16-05-2010 17:20:02 21.1 C 3.69 g/m*3 21.1 C 0 km/h
208 16-05-2010 17:32:02 21.5 C 3.77 g/m*3 21.5 C 0 km/h
209 16-05-2010 17:44:02 21.4 C 3.75 g/m*3 21.4 C 0 km/h
210 16-05-2010 17:56:02 20.8 C 3.62 g/m*3 20.8 C 0 km/h
211 16-05-2010 18:08:02 20.8 C 3.62 g/m*3 20.8 C 0 km/h
212 16-05-2010 18:20:02 20 C 3.46 g/m*3 20 C 0 km/h
213 16-05-2010 18:32:02 19.5 C 3.52 g/m*3 19.5 C 0 km/h
214 16-05-2010 18:44:02 18.9 C 3.56 g/m*3 18.9 C 0 km/h
215 16-05-2010 18:56:02 19.9 C 3.44 g/m*3 19.9 C 0 km/h
216 16-05-2010 19:08:02 19.7 C 3.57 g/m*3 19.7 C 0 km/h
217 16-05-2010 19:20:03 19.5 C 3.52 g/m*3 19.5 C 0 km/h
218 16-05-2010 19:32:02 18.6 C 3.5 g/m*3 18.6 C 0 km/h
219 16-05-2010 19:44:02 18.2 C 3.89 g/m*3 18.2 C 0 km/h
220 16-05-2010 19:56:02 18.3 C 3.91 g/m*3 18.3 C 0 km/h
221 16-05-2010 20:08:02 19.3 C 4.15 g/m*3 19.3 C 0 km/h
222 16-05-2010 20:20:02 19.3 C 4.48 g/m*3 19.3 C 0 km/h
223 16-05-2010 20:32:02 18.2 C 4.51 g/m*3 18.2 C 0 km/h
224 16-05-2010 20:44:02 17 C 4.63 g/m*3 17 C 0 km/h
225 16-05-2010 20:56:02 16 C 4.5 g/m*3 16 C 0 km/h
Sensor: Nr:Datum:Temp:Abs-Feuchte:Windchill:Wind:
Aussen-T/F 226 16-05-2010 21:08:02 15.1 C 4.52 g/m*3 15.1 C 0 km/h
227 16-05-2010 21:20:02 14.6 C 4.63 g/m*3 14.6 C 0 km/h
228 16-05-2010 21:32:02 14.2 C 4.76 g/m*3 14.2 C 0 km/h
229 16-05-2010 21:44:02 13.9 C 4.92 g/m*3 13.9 C 0 km/h
230 16-05-2010 21:56:02 13.6 C 5.18 g/m*3 13.6 C 0 km/h
231 16-05-2010 22:08:02 13.2 C 5.05 g/m*3 13.2 C 0 km/h
232 16-05-2010 22:20:03 12.6 C 5.31 g/m*3 12.6 C 0 km/h
233 16-05-2010 22:33:03 12.3 C 5.32 g/m*3 12.3 C 0 km/h
234 16-05-2010 22:45:03 11.9 C 5.4 g/m*3 11.9 C 0 km/h
235 16-05-2010 22:57:03 11.8 C 5.58 g/m*3 11.8 C 0 km/h
236 16-05-2010 23:09:03 11.4 C 5.65 g/m*3 11.4 C 0 km/h
237 16-05-2010 23:21:03 11 C 5.71 g/m*3 11 C 0 km/h
238 16-05-2010 23:33:03 10.7 C 5.8 g/m*3 10.7 C 0 km/h
239 16-05-2010 23:45:03 10.7 C 5.89 g/m*3 10.7 C 0 km/h
240 16-05-2010 23:57:03 10.5 C 6.01 g/m*3 10.5 C 0 km/h
241 17-05-2010 00:09:03 10.3 C 6.03 g/m*3 10.3 C 0 km/h
242 17-05-2010 00:21:03 10.4 C 5.98 g/m*3 10.4 C 0 km/h
243 17-05-2010 00:33:03 10 C 5.92 g/m*3 10 C 0 km/h
244 17-05-2010 00:45:03 10 C 5.92 g/m*3 10 C 0 km/h
245 17-05-2010 00:57:03 9.9 C 5.98 g/m*3 9.9 C 0 km/h
246 17-05-2010 01:09:03 9.8 C 5.85 g/m*3 9.8 C 0 km/h
247 17-05-2010 01:21:04 9.7 C 5.99 g/m*3 9.7 C 0 km/h
248 17-05-2010 01:33:04 9.3 C 6.02 g/m*3 9.3 C 0 km/h
249 17-05-2010 01:45:04 9 C 5.99 g/m*3 9 C 0 km/h
250 17-05-2010 01:57:04 9 C 6.08 g/m*3 9 C 0 km/h
Sensor: Nr:Datum:Temp:Abs-Feuchte:Windchill:Wind:
Aussen-T/F 251 17-05-2010 02:09:04 8.7 C 6.14 g/m*3 8.7 C 0 km/h
252 17-05-2010 02:21:04 8.6 C 6.1 g/m*3 8.6 C 0 km/h
253 17-05-2010 02:33:04 8.6 C 6.19 g/m*3 8.6 C 0 km/h
254 17-05-2010 02:45:04 8.5 C 6.15 g/m*3 8.5 C 0 km/h
255 17-05-2010 02:57:04 8.4 C 6.11 g/m*3 8.4 C 0 km/h
256 17-05-2010 03:09:04 8.1 C 6.07 g/m*3 8.1 C 0 km/h
257 17-05-2010 03:21:04 7.8 C 6.12 g/m*3 7.8 C 0 km/h
258 17-05-2010 03:33:04 7.6 C 6.12 g/m*3 7.6 C 0 km/h
259 17-05-2010 03:45:04 7.4 C 6.12 g/m*3 7.4 C 0 km/h
260 17-05-2010 03:57:04 7.3 C 6.16 g/m*3 7.3 C 0 km/h
261 17-05-2010 04:09:04 7.2 C 6.12 g/m*3 7.2 C 0 km/h
262 17-05-2010 04:21:04 7.1 C 6.08 g/m*3 7.1 C 0 km/h
263 17-05-2010 04:33:04 7 C 6.04 g/m*3 7 C 0 km/h
264 17-05-2010 04:45:04 6.8 C 6.12 g/m*3 6.8 C 0 km/h
265 17-05-2010 04:57:04 6.7 C 6.15 g/m*3 6.7 C 0 km/h
266 17-05-2010 05:09:04 6.5 C 6.15 g/m*3 6.5 C 0 km/h
267 17-05-2010 05:21:04 6.3 C 6.07 g/m*3 6.3 C 0 km/h
268 17-05-2010 05:33:04 6.2 C 6.1 g/m*3 6.2 C 0 km/h
269 17-05-2010 05:45:05 6.1 C 6.06 g/m*3 6.1 C 0 km/h
270 17-05-2010 05:57:05 6 C 6.02 g/m*3 6 C 0 km/h
271 17-05-2010 06:09:05 6 C 6.1 g/m*3 6 C 0 km/h
272 17-05-2010 06:21:05 6 C 6.02 g/m*3 6 C 0 km/h
273 17-05-2010 06:33:03 6 C 6.02 g/m*3 6 C 0 km/h
274 17-05-2010 06:45:02 5.9 C 6.06 g/m*3 5.9 C 0 km/h
275 17-05-2010 06:57:02 6.1 C 6.06 g/m*3 6.1 C 0 km/h
Sensor: Nr:Datum:Temp:Abs-Feuchte:Windchill:Wind:
Aussen-T/F 276 17-05-2010 07:09:01 6.3 C 6.14 g/m*3 6.3 C 0 km/h
277 17-05-2010 07:21:02 6.5 C 6.15 g/m*3 6.5 C 0 km/h
278 17-05-2010 07:33:01 7.2 C 6.2 g/m*3 7.2 C 0 km/h
279 17-05-2010 07:45:02 7.4 C 6.2 g/m*3 7.4 C 0 km/h
280 17-05-2010 07:57:02 8 C 6.2 g/m*3 8 C 0 km/h
281 17-05-2010 08:09:01 8.3 C 6.24 g/m*3 8.3 C 0 km/h
282 17-05-2010 08:21:02 8.8 C 6.35 g/m*3 8.8 C 0 km/h
283 17-05-2010 08:33:02 9.2 C 6.25 g/m*3 9.2 C 0 km/h
284 17-05-2010 08:45:02 10.1 C 6.24 g/m*3 10.1 C 0 km/h
285 17-05-2010 08:57:02 10.7 C 6.29 g/m*3 10.7 C 0 km/h
286 17-05-2010 09:09:02 11.2 C 6.28 g/m*3 11.2 C 0 km/h
287 17-05-2010 09:21:02 11.6 C 6.44 g/m*3 11.6 C 0 km/h
288 17-05-2010 09:33:02 12.2 C 6.47 g/m*3 12.2 C 0 km/h
289 17-05-2010 09:45:02 12.2 C 6.47 g/m*3 12.2 C 0 km/h
290 17-05-2010 09:57:02 12.2 C 6.47 g/m*3 12.2 C 0 km/h
291 17-05-2010 10:09:02 13 C 6.35 g/m*3 13 C 0 km/h
292 17-05-2010 10:21:02 13.2 C 6.2 g/m*3 13.2 C 0 km/h
293 17-05-2010 10:33:03 13.7 C 6.39 g/m*3 13.7 C 0 km/h
294 17-05-2010 10:45:02 14.1 C 6.55 g/m*3 14.1 C 0 km/h
295 17-05-2010 10:57:03 14.5 C 6.47 g/m*3 14.5 C 0 km/h
296 17-05-2010 11:09:01 14.1 C 6.55 g/m*3 14.1 C 0 km/h
297 17-05-2010 11:21:02 13.9 C 6.83 g/m*3 13.9 C 0 km/h
298 17-05-2010 11:33:02 13.5 C 6.67 g/m*3 13.5 C 0 km/h
299 17-05-2010 11:45:02 13.5 C 7.13 g/m*3 13.5 C 0 km/h
300 17-05-2010 11:57:02 13 C 7.14 g/m*3 13 C 0 km/h
Sensor: Nr:Datum:Temp:Abs-Feuchte:Windchill:Wind:
Aussen-T/F 301 17-05-2010 12:09:02 13.2 C 7.23 g/m*3 13.2 C 0 km/h
302 17-05-2010 12:21:02 13 C 7.48 g/m*3 13 C 0 km/h
303 17-05-2010 12:33:02 13.2 C 7.69 g/m*3 13.2 C 0 km/h
304 17-05-2010 12:45:01 14.2 C 7.45 g/m*3 14.2 C 0 km/h
305 17-05-2010 12:57:01 15.8 C 7.27 g/m*3 15.8 C 0 km/h
306 17-05-2010 13:09:02 15.4 C 6.7 g/m*3 15.4 C 0 km/h
307 17-05-2010 13:21:01 16.9 C 6.9 g/m*3 16.9 C 0 km/h
308 17-05-2010 13:33:01 18.1 C 6.49 g/m*3 18.1 C 0 km/h
309 17-05-2010 13:45:01 17.7 C 6.04 g/m*3 17.7 C 0 km/h
310 17-05-2010 13:57:01 15 C 7.05 g/m*3 15 C 0 km/h
311 17-05-2010 14:09:02 15.6 C 7.05 g/m*3 15.6 C 0 km/h
312 17-05-2010 14:21:01 15.5 C 7.4 g/m*3 15.5 C 0 km/h
313 17-05-2010 14:33:01 17.1 C 6.7 g/m*3 17.1 C 0 km/h
314 17-05-2010 14:45:01 16.5 C 6.46 g/m*3 16.5 C 0 km/h
315 17-05-2010 14:57:01 14.7 C 7.18 g/m*3 14.7 C 0 km/h
316 17-05-2010 15:09:02 12.6 C 8.3 g/m*3 12.6 C 0 km/h
317 17-05-2010 15:21:02 12.6 C 9.07 g/m*3 12.6 C 0 km/h
318 17-05-2010 15:33:01 12.9 C 9.58 g/m*3 12.9 C 0 km/h
319 17-05-2010 15:45:02 12.7 C 9.57 g/m*3 12.7 C 0 km/h
320 17-05-2010 15:57:02 12.5 C 9.57 g/m*3 12.5 C 0 km/h
321 17-05-2010 16:09:01 13.3 C 10.05 g/m*3 13.3 C 0 km/h
322 17-05-2010 16:21:02 13.8 C 9.89 g/m*3 13.8 C 0 km/h
323 17-05-2010 16:33:01 13.7 C 9.24 g/m*3 13.7 C 0 km/h
324 17-05-2010 16:45:02 13.1 C 8.9 g/m*3 13.1 C 0 km/h
325 17-05-2010 16:57:02 13.3 C 9.24 g/m*3 13.3 C 0 km/h
Sensor: Nr:Datum:Temp:Abs-Feuchte:Windchill:Wind:
Aussen-T/F 326 17-05-2010 17:09:01 13.8 C 9.29 g/m*3 13.8 C 0 km/h
327 17-05-2010 17:21:01 14.1 C 8.98 g/m*3 14.1 C 0 km/h
328 17-05-2010 17:33:01 13.9 C 8.99 g/m*3 13.9 C 0 km/h
329 17-05-2010 17:45:02 13.7 C 8.64 g/m*3 13.7 C 0 km/h
330 17-05-2010 17:57:02 13.8 C 8.7 g/m*3 13.8 C 0 km/h
331 17-05-2010 18:09:02 13.6 C 8.47 g/m*3 13.6 C 0 km/h
332 17-05-2010 18:21:02 14.4 C 8.9 g/m*3 14.4 C 0 km/h
333 17-05-2010 18:33:02 11.8 C 6.63 g/m*3 11.8 C 0 km/h
334 17-05-2010 18:45:01 10.7 C 6.88 g/m*3 10.7 C 0 km/h
335 17-05-2010 18:57:01 10 C 7.24 g/m*3 10 C 0 km/h
336 17-05-2010 19:09:02 9.8 C 7.7 g/m*3 9.8 C 0 km/h
337 17-05-2010 19:21:01 10.3 C 7.85 g/m*3 10.3 C 0 km/h
338 17-05-2010 19:33:02 10.3 C 7.95 g/m*3 10.3 C 0 km/h
339 17-05-2010 19:45:02 9.8 C 7.7 g/m*3 9.8 C 0 km/h
340 17-05-2010 19:57:02 10 C 7.8 g/m*3 10 C 0 km/h
341 17-05-2010 20:09:02 9.8 C 7.89 g/m*3 9.8 C 0 km/h
342 17-05-2010 20:21:01 9.5 C 7.83 g/m*3 9.5 C 0 km/h
343 17-05-2010 20:33:02 9.5 C 7.92 g/m*3 9.5 C 0 km/h
344 17-05-2010 20:45:02 9.4 C 7.87 g/m*3 9.4 C 0 km/h
345 17-05-2010 20:57:02 9.1 C 7.81 g/m*3 9.1 C 0 km/h
346 17-05-2010 21:09:02 9 C 7.76 g/m*3 9 C 0 km/h
347 17-05-2010 21:21:02 9 C 7.85 g/m*3 9 C 0 km/h
348 17-05-2010 21:33:02 9 C 7.85 g/m*3 9 C 0 km/h
349 17-05-2010 21:45:02 8.7 C 7.78 g/m*3 8.7 C 0 km/h
350 17-05-2010 21:57:02 8.7 C 7.87 g/m*3 8.7 C 0 km/h
Sensor: Nr:Datum:Temp:Abs-Feuchte:Windchill:Wind:
Aussen-T/F 351 17-05-2010 22:09:02 8.3 C 7.67 g/m*3 8.3 C 0 km/h
352 17-05-2010 22:21:02 8.6 C 7.82 g/m*3 8.6 C 0 km/h
353 17-05-2010 22:34:03 8.7 C 7.96 g/m*3 8.7 C 0 km/h
354 17-05-2010 22:46:03 8.5 C 7.85 g/m*3 8.5 C 0 km/h
355 17-05-2010 22:58:03 8.4 C 7.8 g/m*3 8.4 C 0 km/h
356 17-05-2010 23:10:04 8.1 C 7.57 g/m*3 8.1 C 0 km/h
357 17-05-2010 23:22:04 7.8 C 7.51 g/m*3 7.8 C 0 km/h
358 17-05-2010 23:34:04 7.8 C 7.51 g/m*3 7.8 C 0 km/h
359 17-05-2010 23:46:04 7.7 C 7.54 g/m*3 7.7 C 0 km/h
360 17-05-2010 23:58:04 7.6 C 7.49 g/m*3 7.6 C 0 km/h
361 18-05-2010 00:10:04 7.4 C 7.32 g/m*3 7.4 C 0 km/h
362 18-05-2010 00:22:04 7.1 C 7.18 g/m*3 7.1 C 0 km/h
363 18-05-2010 00:34:04 7 C 7.13 g/m*3 7 C 0 km/h
364 18-05-2010 00:46:04 7 C 7.13 g/m*3 7 C 0 km/h
365 18-05-2010 00:58:04 6.9 C 7.16 g/m*3 6.9 C 0 km/h
366 18-05-2010 01:10:04 6.8 C 7.11 g/m*3 6.8 C 0 km/h
367 18-05-2010 01:22:04 6.6 C 7.02 g/m*3 6.6 C 0 km/h
368 18-05-2010 01:34:04 6.4 C 6.85 g/m*3 6.4 C 0 km/h
369 18-05-2010 01:46:04 6.3 C 6.88 g/m*3 6.3 C 0 km/h
370 18-05-2010 01:58:04 6.2 C 6.84 g/m*3 6.2 C 0 km/h
371 18-05-2010 02:10:04 6.3 C 6.88 g/m*3 6.3 C 0 km/h
372 18-05-2010 02:22:04 6.2 C 6.84 g/m*3 6.2 C 0 km/h
373 18-05-2010 02:34:04 6.1 C 6.79 g/m*3 6.1 C 0 km/h
374 18-05-2010 02:46:04 6 C 6.75 g/m*3 6 C 0 km/h
375 18-05-2010 02:58:04 5.9 C 6.71 g/m*3 5.9 C 0 km/h
Sensor: Nr:Datum:Temp:Abs-Feuchte:Windchill:Wind:
Aussen-T/F 376 18-05-2010 03:10:04 5.8 C 6.66 g/m*3 5.8 C 0 km/h
377 18-05-2010 03:22:04 5.7 C 6.62 g/m*3 5.7 C 0 km/h
378 18-05-2010 03:34:05 5.7 C 6.69 g/m*3 5.7 C 0 km/h
379 18-05-2010 03:46:05 5.8 C 6.73 g/m*3 5.8 C 0 km/h
380 18-05-2010 03:58:05 6 C 6.75 g/m*3 6 C 0 km/h
381 18-05-2010 04:10:05 6.3 C 6.96 g/m*3 6.3 C 0 km/h
382 18-05-2010 04:22:05 6.3 C 6.96 g/m*3 6.3 C 0 km/h
383 18-05-2010 04:34:05 6.3 C 6.96 g/m*3 6.3 C 0 km/h
384 18-05-2010 04:46:05 6.2 C 6.91 g/m*3 6.2 C 0 km/h
385 18-05-2010 04:58:05 6.3 C 6.88 g/m*3 6.3 C 0 km/h
386 18-05-2010 05:10:05 6.4 C 7 g/m*3 6.4 C 0 km/h
387 18-05-2010 05:22:05 6.5 C 7.05 g/m*3 6.5 C 0 km/h
388 18-05-2010 05:34:05 6.4 C 6.93 g/m*3 6.4 C 0 km/h
389 18-05-2010 05:46:05 6.5 C 6.97 g/m*3 6.5 C 0 km/h
390 18-05-2010 05:58:05 6.7 C 7.07 g/m*3 6.7 C 0 km/h
391 18-05-2010 06:10:05 6.9 C 7.16 g/m*3 6.9 C 0 km/h
392 18-05-2010 06:22:05 6.9 C 7.16 g/m*3 6.9 C 0 km/h
393 18-05-2010 06:34:05 7.1 C 7.18 g/m*3 7.1 C 0 km/h
394 18-05-2010 06:46:05 7.3 C 7.27 g/m*3 7.3 C 0 km/h
395 18-05-2010 06:58:05 7.5 C 7.28 g/m*3 7.5 C 0 km/h
396 18-05-2010 07:10:04 7.9 C 7.47 g/m*3 7.9 C 0 km/h
397 18-05-2010 07:22:03 7.9 C 7.39 g/m*3 7.9 C 0 km/h
398 18-05-2010 07:34:03 8 C 7.36 g/m*3 8 C 0 km/h
399 18-05-2010 07:46:01 8.5 C 7.6 g/m*3 8.5 C 0 km/h
400 18-05-2010 07:58:01 8.7 C 7.52 g/m*3 8.7 C 0 km/h
Sensor: Nr:Datum:Temp:Abs-Feuchte:Windchill:Wind:
Aussen-T/F 401 18-05-2010 08:10:02 9 C 7.23 g/m*3 9 C 0 km/h
402 18-05-2010 08:22:01 8.7 C 6.66 g/m*3 8.7 C 0 km/h
403 18-05-2010 08:34:02 9 C 6.44 g/m*3 9 C 0 km/h
404 18-05-2010 08:46:02 9.3 C 6.56 g/m*3 9.3 C 0 km/h
405 18-05-2010 08:58:02 9.2 C 6.52 g/m*3 9.2 C 0 km/h
406 18-05-2010 09:10:01 9.3 C 6.47 g/m*3 9.3 C 0 km/h
407 18-05-2010 09:22:02 9.6 C 6.41 g/m*3 9.6 C 0 km/h
408 18-05-2010 09:34:01 9.9 C 6.35 g/m*3 9.9 C 0 km/h
409 18-05-2010 09:46:02 9.7 C 6.08 g/m*3 9.7 C 0 km/h
410 18-05-2010 09:58:02 10 C 6.01 g/m*3 10 C 0 km/h
411 18-05-2010 10:10:01 10.5 C 6.01 g/m*3 10.5 C 0 km/h
412 18-05-2010 10:22:01 10.5 C 6.01 g/m*3 10.5 C 0 km/h
413 18-05-2010 10:34:02 10.6 C 5.66 g/m*3 10.6 C 0 km/h
414 18-05-2010 10:46:02 11.2 C 5.57 g/m*3 11.2 C 0 km/h
415 18-05-2010 10:58:02 11.4 C 5.65 g/m*3 11.4 C 0 km/h
416 18-05-2010 11:10:02 12.5 C 5.61 g/m*3 12.5 C 0 km/h
417 18-05-2010 11:22:02 12.4 C 5.24 g/m*3 12.4 C 0 km/h
418 18-05-2010 11:34:02 12.1 C 5.25 g/m*3 12.1 C 0 km/h
419 18-05-2010 11:46:02 13 C 5.22 g/m*3 13 C 0 km/h
420 18-05-2010 11:58:02 13.7 C 5.21 g/m*3 13.7 C 0 km/h
421 18-05-2010 12:10:03 13.7 C 4.86 g/m*3 13.7 C 0 km/h
422 18-05-2010 12:22:02 12.7 C 5.12 g/m*3 12.7 C 0 km/h
423 18-05-2010 12:34:02 14.2 C 5.13 g/m*3 14.2 C 0 km/h
424 18-05-2010 12:46:01 14.4 C 4.82 g/m*3 14.4 C 0 km/h
425 18-05-2010 12:58:01 15.2 C 4.67 g/m*3 15.2 C 0 km/h
Sensor: Nr:Datum:Temp:Abs-Feuchte:Windchill:Wind:
Aussen-T/F 426 18-05-2010 13:10:02 16.8 C 5 g/m*3 16.8 C 0 km/h
427 18-05-2010 13:22:01 16.9 C 4.46 g/m*3 16.9 C 0 km/h
428 18-05-2010 13:34:01 16.5 C 4.49 g/m*3 16.5 C 0 km/h
429 18-05-2010 13:46:01 17.8 C 4.4 g/m*3 17.8 C 0 km/h
430 18-05-2010 13:58:01 15.8 C 4.04 g/m*3 15.8 C 0 km/h
431 18-05-2010 14:10:02 15.1 C 4.13 g/m*3 15.1 C 0 km/h
432 18-05-2010 14:22:01 15.8 C 4.17 g/m*3 15.8 C 0 km/h
433 18-05-2010 14:34:01 15 C 4.23 g/m*3 15 C 0 km/h
434 18-05-2010 14:46:01 15.8 C 4.31 g/m*3 15.8 C 0 km/h
435 18-05-2010 14:58:01 16.3 C 4.16 g/m*3 16.3 C 0 km/h
436 18-05-2010 15:10:02 16.4 C 4.47 g/m*3 16.4 C 0 km/h
437 18-05-2010 15:22:02 16.5 C 4.21 g/m*3 16.5 C 0 km/h
438 18-05-2010 15:34:01 16.6 C 3.96 g/m*3 16.6 C 0 km/h
439 18-05-2010 15:46:02 16 C 3.95 g/m*3 16 C 0 km/h
440 18-05-2010 15:58:02 16.9 C 4.17 g/m*3 16.9 C 0 km/h
441 18-05-2010 16:10:01 18.2 C 4.04 g/m*3 18.2 C 0 km/h
442 18-05-2010 16:22:02 18.2 C 3.89 g/m*3 18.2 C 0 km/h
443 18-05-2010 16:34:01 17.9 C 3.05 g/m*3 17.9 C 0 km/h
444 18-05-2010 16:46:02 17.6 C 3.3 g/m*3 17.6 C 0 km/h
445 18-05-2010 16:58:02 16.8 C 3.29 g/m*3 16.8 C 0 km/h
446 18-05-2010 17:10:02 16.6 C 3.53 g/m*3 16.6 C 0 km/h
447 18-05-2010 17:22:02 17.7 C 3.77 g/m*3 17.7 C 0 km/h
448 18-05-2010 17:34:02 17.5 C 4.03 g/m*3 17.5 C 0 km/h
449 18-05-2010 17:46:02 16.8 C 3.86 g/m*3 16.8 C 0 km/h
450 18-05-2010 17:58:02 17.2 C 3.66 g/m*3 17.2 C 0 km/h
Sensor: Nr:Datum:Temp:Abs-Feuchte:Windchill:Wind:
Aussen-T/F 451 18-05-2010 18:10:01 18.2 C 3.57 g/m*3 18.2 C 0 km/h
452 18-05-2010 18:22:02 18.2 C 3.73 g/m*3 18.2 C 0 km/h
453 18-05-2010 18:34:02 16.9 C 3.88 g/m*3 16.9 C 0 km/h
454 18-05-2010 18:46:02 16.2 C 4.14 g/m*3 16.2 C 0 km/h
455 18-05-2010 18:58:02 16.4 C 4.33 g/m*3 16.4 C 0 km/h
456 18-05-2010 19:10:02 15.7 C 4.42 g/m*3 15.7 C 0 km/h
457 18-05-2010 19:22:02 16.1 C 4.25 g/m*3 16.1 C 0 km/h
458 18-05-2010 19:34:03 15.3 C 4.31 g/m*3 15.3 C 0 km/h
459 18-05-2010 19:46:02 14.8 C 4.56 g/m*3 14.8 C 0 km/h
460 18-05-2010 19:58:02 14.7 C 4.66 g/m*3 14.7 C 0 km/h
461 18-05-2010 20:10:02 14.5 C 4.6 g/m*3 14.5 C 0 km/h
462 18-05-2010 20:22:01 14.4 C 4.94 g/m*3 14.4 C 0 km/h
463 18-05-2010 20:34:02 14.5 C 4.85 g/m*3 14.5 C 0 km/h
464 18-05-2010 20:46:02 14.1 C 4.85 g/m*3 14.1 C 0 km/h
465 18-05-2010 20:58:02 13.8 C 4.89 g/m*3 13.8 C 0 km/h
466 18-05-2010 21:10:02 13.5 C 5.03 g/m*3 13.5 C 0 km/h
467 18-05-2010 21:22:02 13.1 C 4.79 g/m*3 13.1 C 0 km/h
468 18-05-2010 21:34:02 12.6 C 4.76 g/m*3 12.6 C 0 km/h
469 18-05-2010 21:46:02 12.4 C 4.48 g/m*3 12.4 C 0 km/h
470 18-05-2010 21:58:02 12.4 C 4.37 g/m*3 12.4 C 0 km/h
471 18-05-2010 22:10:02 12 C 4.37 g/m*3 12 C 0 km/h
472 18-05-2010 22:22:02 11.7 C 4.39 g/m*3 11.7 C 0 km/h
473 18-05-2010 22:35:02 11.5 C 4.44 g/m*3 11.5 C 0 km/h
474 18-05-2010 22:47:02 11.2 C 4.66 g/m*3 11.2 C 0 km/h
475 18-05-2010 22:59:02 10.8 C 4.94 g/m*3 10.8 C 0 km/h
Sensor: Nr:Datum:Temp:Abs-Feuchte:Windchill:Wind:
Aussen-T/F 476 18-05-2010 23:11:02 10.5 C 5.04 g/m*3 10.5 C 0 km/h
477 18-05-2010 23:23:02 10.2 C 5.33 g/m*3 10.2 C 0 km/h
478 18-05-2010 23:35:03 9.9 C 5.51 g/m*3 9.9 C 0 km/h
479 18-05-2010 23:47:03 9.7 C 5.53 g/m*3 9.7 C 0 km/h
480 18-05-2010 23:59:03 9.6 C 5.59 g/m*3 9.6 C 0 km/h
481 19-05-2010 00:11:03 9.4 C 5.79 g/m*3 9.4 C 0 km/h
482 19-05-2010 00:23:03 9.4 C 5.79 g/m*3 9.4 C 0 km/h
483 19-05-2010 00:35:03 9.3 C 5.75 g/m*3 9.3 C 0 km/h
484 19-05-2010 00:47:03 9.3 C 5.75 g/m*3 9.3 C 0 km/h
485 19-05-2010 00:59:03 9.2 C 5.71 g/m*3 9.2 C 0 km/h
486 19-05-2010 01:11:03 9.2 C 5.54 g/m*3 9.2 C 0 km/h
487 19-05-2010 01:23:03 9.3 C 5.39 g/m*3 9.3 C 0 km/h
488 19-05-2010 01:35:03 9.3 C 5.3 g/m*3 9.3 C 0 km/h
489 19-05-2010 01:47:03 9.3 C 5.3 g/m*3 9.3 C 0 km/h
490 19-05-2010 01:59:03 9.3 C 5.3 g/m*3 9.3 C 0 km/h
491 19-05-2010 02:11:03 9.2 C 5.27 g/m*3 9.2 C 0 km/h
492 19-05-2010 02:23:03 9.1 C 5.32 g/m*3 9.1 C 0 km/h
493 19-05-2010 02:35:03 9.2 C 5.36 g/m*3 9.2 C 0 km/h
494 19-05-2010 02:47:03 9 C 5.29 g/m*3 9 C 0 km/h
495 19-05-2010 02:59:03 8.8 C 5.4 g/m*3 8.8 C 0 km/h
496 19-05-2010 03:11:03 8.8 C 5.4 g/m*3 8.8 C 0 km/h
497 19-05-2010 03:23:03 8.8 C 5.31 g/m*3 8.8 C 0 km/h
498 19-05-2010 03:35:03 8.7 C 5.36 g/m*3 8.7 C 0 km/h
499 19-05-2010 03:47:03 8.6 C 5.33 g/m*3 8.6 C 0 km/h
500 19-05-2010 03:59:03 8.5 C 5.38 g/m*3 8.5 C 0 km/h
Sensor: Nr:Datum:Temp:Abs-Feuchte:Windchill:Wind:
Aussen-T/F 501 19-05-2010 04:11:04 8.4 C 5.43 g/m*3 8.4 C 0 km/h
502 19-05-2010 04:23:04 8.2 C 5.44 g/m*3 8.2 C 0 km/h
503 19-05-2010 04:35:04 8.1 C 5.49 g/m*3 8.1 C 0 km/h
504 19-05-2010 04:47:04 8.1 C 5.66 g/m*3 8.1 C 0 km/h
505 19-05-2010 04:59:04 8 C 5.7 g/m*3 8 C 0 km/h
506 19-05-2010 05:11:04 8 C 5.7 g/m*3 8 C 0 km/h
507 19-05-2010 05:23:04 7.9 C 5.83 g/m*3 7.9 C 0 km/h
508 19-05-2010 05:35:04 7.9 C 5.91 g/m*3 7.9 C 0 km/h
509 19-05-2010 05:47:04 7.9 C 5.91 g/m*3 7.9 C 0 km/h
510 19-05-2010 05:59:04 7.9 C 5.91 g/m*3 7.9 C 0 km/h
511 19-05-2010 06:11:04 7.8 C 5.96 g/m*3 7.8 C 0 km/h
512 19-05-2010 06:23:04 8 C 5.95 g/m*3 8 C 0 km/h
513 19-05-2010 06:35:04 8.1 C 5.91 g/m*3 8.1 C 0 km/h
514 19-05-2010 06:47:04 8.1 C 5.91 g/m*3 8.1 C 0 km/h
515 19-05-2010 06:59:04 8.2 C 5.95 g/m*3 8.2 C 0 km/h
516 19-05-2010 07:11:02 8.4 C 6.02 g/m*3 8.4 C 0 km/h
517 19-05-2010 07:23:02 8.5 C 5.89 g/m*3 8.5 C 0 km/h
518 19-05-2010 07:35:02 8.6 C 5.84 g/m*3 8.6 C 0 km/h
519 19-05-2010 07:47:02 8.7 C 5.88 g/m*3 8.7 C 0 km/h
520 19-05-2010 07:59:02 9.1 C 5.86 g/m*3 9.1 C 0 km/h
521 19-05-2010 08:11:02 9.1 C 5.68 g/m*3 9.1 C 0 km/h
522 19-05-2010 08:23:02 9.3 C 5.66 g/m*3 9.3 C 0 km/h
523 19-05-2010 08:35:02 9 C 5.55 g/m*3 9 C 0 km/h
524 19-05-2010 08:47:02 9.1 C 5.59 g/m*3 9.1 C 0 km/h
525 19-05-2010 08:59:02 9.2 C 5.63 g/m*3 9.2 C 0 km/h
Sensor: Nr:Datum:Temp:Abs-Feuchte:Windchill:Wind:
Aussen-T/F 526 19-05-2010 09:11:01 8.9 C 5.69 g/m*3 8.9 C 0 km/h
527 19-05-2010 09:23:01 9.1 C 5.77 g/m*3 9.1 C 0 km/h
528 19-05-2010 09:35:01 9.2 C 5.71 g/m*3 9.2 C 0 km/h
529 19-05-2010 09:47:02 9.2 C 5.71 g/m*3 9.2 C 0 km/h
530 19-05-2010 09:59:02 9.5 C 5.73 g/m*3 9.5 C 0 km/h
531 19-05-2010 10:11:02 9.6 C 5.77 g/m*3 9.6 C 0 km/h
532 19-05-2010 10:23:02 9.6 C 5.68 g/m*3 9.6 C 0 km/h
533 19-05-2010 10:35:01 9.8 C 5.75 g/m*3 9.8 C 0 km/h
534 19-05-2010 10:47:02 9.5 C 5.64 g/m*3 9.5 C 0 km/h
535 19-05-2010 10:59:02 9.6 C 5.77 g/m*3 9.6 C 0 km/h
536 19-05-2010 11:11:01 9.7 C 5.81 g/m*3 9.7 C 0 km/h
537 19-05-2010 11:23:02 10.1 C 5.77 g/m*3 10.1 C 0 km/h
538 19-05-2010 11:35:02 10.3 C 5.84 g/m*3 10.3 C 0 km/h
539 19-05-2010 11:47:02 10.7 C 5.89 g/m*3 10.7 C 0 km/h
540 19-05-2010 11:59:02 10.3 C 5.75 g/m*3 10.3 C 0 km/h
541 19-05-2010 12:11:02 10.7 C 5.99 g/m*3 10.7 C 0 km/h
542 19-05-2010 12:23:02 10.9 C 5.97 g/m*3 10.9 C 0 km/h
543 19-05-2010 12:35:02 10.7 C 5.8 g/m*3 10.7 C 0 km/h
544 19-05-2010 12:47:02 11.1 C 5.64 g/m*3 11.1 C 0 km/h
545 19-05-2010 12:59:02 11.7 C 5.75 g/m*3 11.7 C 0 km/h
546 19-05-2010 13:11:02 11.9 C 5.61 g/m*3 11.9 C 0 km/h
547 19-05-2010 13:23:01 11.7 C 5.33 g/m*3 11.7 C 0 km/h
548 19-05-2010 13:35:02 11.5 C 5.99 g/m*3 11.5 C 0 km/h
549 19-05-2010 13:47:02 11.3 C 6.32 g/m*3 11.3 C 0 km/h
550 19-05-2010 13:59:02 11.3 C 6.32 g/m*3 11.3 C 0 km/h
Sensor: Nr:Datum:Temp:Abs-Feuchte:Windchill:Wind:
Aussen-T/F 551 19-05-2010 14:11:02 11.4 C 6.47 g/m*3 11.4 C 0 km/h
552 19-05-2010 14:23:02 11.2 C 6.39 g/m*3 11.2 C 0 km/h
553 19-05-2010 14:35:02 10.9 C 6.76 g/m*3 10.9 C 0 km/h
554 19-05-2010 14:47:02 11.9 C 7.31 g/m*3 11.9 C 0 km/h
555 19-05-2010 14:59:02 11.9 C 6.99 g/m*3 11.9 C 0 km/h
556 19-05-2010 15:11:02 11.8 C 7.37 g/m*3 11.8 C 0 km/h
557 19-05-2010 15:23:02 11.5 C 7.64 g/m*3 11.5 C 0 km/h
558 19-05-2010 15:35:02 11.4 C 7.9 g/m*3 11.4 C 0 km/h
559 19-05-2010 15:47:02 11.1 C 7.86 g/m*3 11.1 C 0 km/h
560 19-05-2010 15:59:02 11.2 C 8.01 g/m*3 11.2 C 0 km/h
561 19-05-2010 16:11:02 11 C 8.01 g/m*3 11 C 0 km/h
562 19-05-2010 16:23:02 10.8 C 8.01 g/m*3 10.8 C 0 km/h
563 19-05-2010 16:35:02 10.7 C 8.05 g/m*3 10.7 C 0 km/h
564 19-05-2010 16:47:02 10.8 C 8.2 g/m*3 10.8 C 0 km/h
565 19-05-2010 16:59:02 10.6 C 8.1 g/m*3 10.6 C 0 km/h
566 19-05-2010 17:11:02 10.7 C 8.25 g/m*3 10.7 C 0 km/h
567 19-05-2010 17:23:03 10.6 C 8.3 g/m*3 10.6 C 0 km/h
568 19-05-2010 17:35:02 10.7 C 8.35 g/m*3 10.7 C 0 km/h
569 19-05-2010 17:47:02 10.7 C 8.35 g/m*3 10.7 C 0 km/h
570 19-05-2010 17:59:02 10.7 C 8.35 g/m*3 10.7 C 0 km/h
571 19-05-2010 18:11:02 11.1 C 8.46 g/m*3 11.1 C 0 km/h
572 19-05-2010 18:23:03 11.1 C 8.36 g/m*3 11.1 C 0 km/h
573 19-05-2010 18:35:02 11.1 C 8.16 g/m*3 11.1 C 0 km/h
574 19-05-2010 18:47:02 11.2 C 8.11 g/m*3 11.2 C 0 km/h
575 19-05-2010 18:59:02 11.2 C 8.01 g/m*3 11.2 C 0 km/h
Sensor: Nr:Datum:Temp:Abs-Feuchte:Windchill:Wind:
Aussen-T/F 576 19-05-2010 19:11:02 11.3 C 7.96 g/m*3 11.3 C 0 km/h
577 19-05-2010 19:23:02 11.4 C 8.01 g/m*3 11.4 C 0 km/h
578 19-05-2010 19:35:02 11.5 C 8.06 g/m*3 11.5 C 0 km/h
579 19-05-2010 19:47:02 11.6 C 8.11 g/m*3 11.6 C 0 km/h
580 19-05-2010 19:59:02 11.6 C 8 g/m*3 11.6 C 0 km/h
581 19-05-2010 20:11:02 11.6 C 8 g/m*3 11.6 C 0 km/h
582 19-05-2010 20:23:02 11.7 C 7.95 g/m*3 11.7 C 0 km/h
583 19-05-2010 20:35:01 11.7 C 7.84 g/m*3 11.7 C 0 km/h
584 19-05-2010 20:47:02 11.8 C 7.68 g/m*3 11.8 C 0 km/h
585 19-05-2010 20:59:02 12 C 7.14 g/m*3 12 C 0 km/h
586 19-05-2010 21:11:01 12.6 C 6.2 g/m*3 12.6 C 0 km/h
587 19-05-2010 21:23:02 12.8 C 6.16 g/m*3 12.8 C 0 km/h
588 19-05-2010 21:35:02 13.2 C 5.51 g/m*3 13.2 C 0 km/h
589 19-05-2010 21:47:02 13 C 5.78 g/m*3 13 C 0 km/h
590 19-05-2010 21:59:03 13.1 C 5.48 g/m*3 13.1 C 0 km/h
591 19-05-2010 22:11:02 13.2 C 5.51 g/m*3 13.2 C 0 km/h
592 19-05-2010 22:23:02 13.1 C 5.71 g/m*3 13.1 C 0 km/h
593 19-05-2010 22:35:03 13.2 C 5.63 g/m*3 13.2 C 0 km/h
594 19-05-2010 22:47:02 13 C 5.67 g/m*3 13 C 0 km/h
595 19-05-2010 22:59:03 12.8 C 5.94 g/m*3 12.8 C 0 km/h
596 19-05-2010 23:11:01 12.8 C 5.94 g/m*3 12.8 C 0 km/h
597 19-05-2010 23:23:02 12.8 C 5.82 g/m*3 12.8 C 0 km/h
598 19-05-2010 23:35:02 12.8 C 5.94 g/m*3 12.8 C 0 km/h
599 19-05-2010 23:47:02 12.9 C 5.75 g/m*3 12.9 C 0 km/h
600 19-05-2010 23:59:02 12.7 C 5.68 g/m*3 12.7 C 0 km/h
Sensor: Nr:Datum:Temp:Abs-Feuchte:Windchill:Wind:
Aussen-T/F 601 20-05-2010 00:11:02 12.9 C 5.52 g/m*3 12.9 C 0 km/h
602 20-05-2010 00:23:03 12.8 C 5.49 g/m*3 12.8 C 0 km/h
603 20-05-2010 00:35:02 12.8 C 5.26 g/m*3 12.8 C 0 km/h
604 20-05-2010 00:47:02 13 C 4.99 g/m*3 13 C 0 km/h
605 20-05-2010 00:59:02 13 C 4.76 g/m*3 13 C 0 km/h
606 20-05-2010 01:11:02 12.8 C 4.93 g/m*3 12.8 C 0 km/h
607 20-05-2010 01:23:03 12.6 C 5.2 g/m*3 12.6 C 0 km/h
608 20-05-2010 01:35:02 12.5 C 5.61 g/m*3 12.5 C 0 km/h
609 20-05-2010 01:47:03 12.4 C 5.68 g/m*3 12.4 C 0 km/h
610 20-05-2010 01:59:03 12.2 C 5.61 g/m*3 12.2 C 0 km/h
611 20-05-2010 02:11:02 12.1 C 5.47 g/m*3 12.1 C 0 km/h
612 20-05-2010 02:23:03 12 C 5.65 g/m*3 12 C 0 km/h
613 20-05-2010 02:35:02 11.8 C 5.68 g/m*3 11.8 C 0 km/h
614 20-05-2010 02:48:04 11.7 C 5.65 g/m*3 11.7 C 0 km/h
615 20-05-2010 03:00:04 11.5 C 5.68 g/m*3 11.5 C 0 km/h
616 20-05-2010 03:12:03 11.7 C 5.54 g/m*3 11.7 C 0 km/h
617 20-05-2010 03:24:03 11.5 C 5.37 g/m*3 11.5 C 0 km/h
618 20-05-2010 03:36:01 11.4 C 5.44 g/m*3 11.4 C 0 km/h
619 20-05-2010 03:48:01 11.5 C 5.47 g/m*3 11.5 C 0 km/h
620 20-05-2010 04:00:01 11.2 C 5.47 g/m*3 11.2 C 0 km/h
621 20-05-2010 04:12:02 11.3 C 5.3 g/m*3 11.3 C 0 km/h
622 20-05-2010 04:24:01 11.2 C 5.27 g/m*3 11.2 C 0 km/h
623 20-05-2010 04:36:02 11.1 C 5.24 g/m*3 11.1 C 0 km/h
624 20-05-2010 04:48:01 11 C 5.2 g/m*3 11 C 0 km/h
625 20-05-2010 05:00:01 11.1 C 5.24 g/m*3 11.1 C 0 km/h
Sensor: Nr:Datum:Temp:Abs-Feuchte:Windchill:Wind:
Aussen-T/F 626 20-05-2010 05:12:02 11.1 C 5.14 g/m*3 11.1 C 0 km/h
627 20-05-2010 05:24:02 11 C 5.31 g/m*3 11 C 0 km/h
628 20-05-2010 05:36:02 11 C 5.2 g/m*3 11 C 0 km/h
629 20-05-2010 05:48:01 10.9 C 5.27 g/m*3 10.9 C 0 km/h
630 20-05-2010 06:00:01 10.9 C 5.27 g/m*3 10.9 C 0 km/h
631 20-05-2010 06:12:02 10.9 C 5.37 g/m*3 10.9 C 0 km/h
632 20-05-2010 06:24:02 11 C 5 g/m*3 11 C 0 km/h
633 20-05-2010 06:36:02 11.1 C 5.04 g/m*3 11.1 C 0 km/h
634 20-05-2010 06:48:02 11.2 C 5.27 g/m*3 11.2 C 0 km/h
635 20-05-2010 07:00:02 11.2 C 5.17 g/m*3 11.2 C 0 km/h
636 20-05-2010 07:12:02 11.2 C 5.17 g/m*3 11.2 C 0 km/h
637 20-05-2010 07:24:02 11.2 C 5.17 g/m*3 11.2 C 0 km/h
638 20-05-2010 07:36:01 11.4 C 5.44 g/m*3 11.4 C 0 km/h
639 20-05-2010 07:48:02 11.3 C 5.3 g/m*3 11.3 C 0 km/h
640 20-05-2010 08:00:02 11.2 C 5.27 g/m*3 11.2 C 0 km/h
641 20-05-2010 08:12:01 11 C 5.2 g/m*3 11 C 0 km/h
642 20-05-2010 08:24:02 11 C 5.31 g/m*3 11 C 0 km/h
643 20-05-2010 08:36:01 11.1 C 5.44 g/m*3 11.1 C 0 km/h
644 20-05-2010 08:48:02 11.4 C 5.54 g/m*3 11.4 C 0 km/h
645 20-05-2010 09:00:02 11.8 C 5.47 g/m*3 11.8 C 0 km/h
646 20-05-2010 09:12:02 11.8 C 5.37 g/m*3 11.8 C 0 km/h
647 20-05-2010 09:24:02 11.8 C 5.47 g/m*3 11.8 C 0 km/h
648 20-05-2010 09:36:01 11.7 C 5.44 g/m*3 11.7 C 0 km/h
649 20-05-2010 09:48:02 12 C 5.33 g/m*3 12 C 0 km/h
650 20-05-2010 10:00:02 12.1 C 5.36 g/m*3 12.1 C 0 km/h
Sensor: Nr:Datum:Temp:Abs-Feuchte:Windchill:Wind:
Aussen-T/F 651 20-05-2010 10:12:01 12.1 C 5.36 g/m*3 12.1 C 0 km/h
652 20-05-2010 10:24:02 12.4 C 5.46 g/m*3 12.4 C 0 km/h
653 20-05-2010 10:36:01 12.5 C 5.39 g/m*3 12.5 C 0 km/h
654 20-05-2010 10:48:02 12.4 C 5.35 g/m*3 12.4 C 0 km/h
655 20-05-2010 11:00:02 12.5 C 5.28 g/m*3 12.5 C 0 km/h
656 20-05-2010 11:12:02 12.7 C 5.23 g/m*3 12.7 C 0 km/h
657 20-05-2010 11:24:02 13.1 C 5.14 g/m*3 13.1 C 0 km/h
658 20-05-2010 11:36:02 13.4 C 5 g/m*3 13.4 C 0 km/h
659 20-05-2010 11:48:02 13.8 C 5.12 g/m*3 13.8 C 0 km/h
660 20-05-2010 12:00:02 13.8 C 5 g/m*3 13.8 C 0 km/h
661 20-05-2010 12:12:01 13.8 C 4.89 g/m*3 13.8 C 0 km/h
662 20-05-2010 12:24:01 14.4 C 4.82 g/m*3 14.4 C 0 km/h
663 20-05-2010 12:36:02 14.2 C 4.88 g/m*3 14.2 C 0 km/h
664 20-05-2010 12:48:02 14 C 4.82 g/m*3 14 C 0 km/h
665 20-05-2010 13:00:02 14 C 4.95 g/m*3 14 C 0 km/h
666 20-05-2010 13:12:02 14.1 C 5.1 g/m*3 14.1 C 0 km/h
667 20-05-2010 13:24:01 13 C 6.01 g/m*3 13 C 0 km/h
668 20-05-2010 13:36:02 12.9 C 6.88 g/m*3 12.9 C 0 km/h
669 20-05-2010 13:48:02 13.1 C 7.3 g/m*3 13.1 C 0 km/h
670 20-05-2010 14:00:02 12.8 C 7.39 g/m*3 12.8 C 0 km/h
671 20-05-2010 14:12:02 13.5 C 7.84 g/m*3 13.5 C 0 km/h
672 20-05-2010 14:24:02 13.9 C 7.67 g/m*3 13.9 C 0 km/h
673 20-05-2010 14:36:02 13.9 C 7.43 g/m*3 13.9 C 0 km/h
674 20-05-2010 14:48:02 13.8 C 7.63 g/m*3 13.8 C 0 km/h
675 20-05-2010 15:00:02 13.7 C 7.7 g/m*3 13.7 C 0 km/h
Sensor: Nr:Datum:Temp:Abs-Feuchte:Windchill:Wind:
Aussen-T/F 676 20-05-2010 15:12:03 13.4 C 7.56 g/m*3 13.4 C 0 km/h
677 20-05-2010 15:24:02 12 C 7.67 g/m*3 12 C 0 km/h
678 20-05-2010 15:36:02 12.1 C 7.83 g/m*3 12.1 C 0 km/h
679 20-05-2010 15:48:02 12.5 C 7.59 g/m*3 12.5 C 0 km/h
680 20-05-2010 16:00:02 13.1 C 7.87 g/m*3 13.1 C 0 km/h
681 20-05-2010 16:12:02 12.9 C 7.55 g/m*3 12.9 C 0 km/h
682 20-05-2010 16:24:01 12.4 C 7.21 g/m*3 12.4 C 0 km/h
683 20-05-2010 16:36:02 12.6 C 7.85 g/m*3 12.6 C 0 km/h
684 20-05-2010 16:48:02 12.8 C 8.06 g/m*3 12.8 C 0 km/h
685 20-05-2010 17:00:02 13.3 C 8.2 g/m*3 13.3 C 0 km/h
686 20-05-2010 17:12:02 14.2 C 7.82 g/m*3 14.2 C 0 km/h
687 20-05-2010 17:24:02 14 C 7.24 g/m*3 14 C 0 km/h
688 20-05-2010 17:36:02 14.3 C 7.86 g/m*3 14.3 C 0 km/h
689 20-05-2010 17:48:02 14.2 C 7.57 g/m*3 14.2 C 0 km/h
690 20-05-2010 18:00:02 14.4 C 7.91 g/m*3 14.4 C 0 km/h
691 20-05-2010 18:12:02 14.6 C 7.88 g/m*3 14.6 C 0 km/h
692 20-05-2010 18:24:02 14.7 C 7.81 g/m*3 14.7 C 0 km/h
693 20-05-2010 18:36:02 15 C 8.08 g/m*3 15 C 0 km/h
694 20-05-2010 18:48:02 14.8 C 7.73 g/m*3 14.8 C 0 km/h
695 20-05-2010 19:00:02 14.7 C 8.06 g/m*3 14.7 C 0 km/h
696 20-05-2010 19:12:02 14.8 C 8.23 g/m*3 14.8 C 0 km/h
697 20-05-2010 19:24:03 14.8 C 8.23 g/m*3 14.8 C 0 km/h
698 20-05-2010 19:36:02 14.9 C 8.28 g/m*3 14.9 C 0 km/h
699 20-05-2010 19:48:02 14.8 C 8.11 g/m*3 14.8 C 0 km/h
700 20-05-2010 20:00:02 14.8 C 8.11 g/m*3 14.8 C 0 km/h
Sensor: Nr:Datum:Temp:Abs-Feuchte:Windchill:Wind:
Aussen-T/F 701 20-05-2010 20:12:02 14.7 C 8.06 g/m*3 14.7 C 0 km/h
702 20-05-2010 20:24:03 14.4 C 7.91 g/m*3 14.4 C 0 km/h
703 20-05-2010 20:36:02 14.1 C 7.65 g/m*3 14.1 C 0 km/h
704 20-05-2010 20:48:03 13.8 C 7.86 g/m*3 13.8 C 0 km/h
705 20-05-2010 21:00:03 13.5 C 7.95 g/m*3 13.5 C 0 km/h
706 20-05-2010 21:12:02 13.2 C 7.58 g/m*3 13.2 C 0 km/h
707 20-05-2010 21:24:02 12.8 C 7.5 g/m*3 12.8 C 0 km/h
708 20-05-2010 21:36:02 12.8 C 7.62 g/m*3 12.8 C 0 km/h
709 20-05-2010 21:48:02 12.6 C 7.41 g/m*3 12.6 C 0 km/h
710 20-05-2010 22:00:02 12.5 C 7.37 g/m*3 12.5 C 0 km/h
711 20-05-2010 22:12:02 12.4 C 7.32 g/m*3 12.4 C 0 km/h
712 20-05-2010 22:24:02 12.2 C 7.01 g/m*3 12.2 C 0 km/h
713 20-05-2010 22:36:02 12.2 C 7.12 g/m*3 12.2 C 0 km/h
714 20-05-2010 22:49:03 12.2 C 7.23 g/m*3 12.2 C 0 km/h
715 20-05-2010 23:01:03 12.2 C 7.34 g/m*3 12.2 C 0 km/h
716 20-05-2010 23:13:03 12.1 C 7.51 g/m*3 12.1 C 0 km/h
717 20-05-2010 23:25:03 12.1 C 7.61 g/m*3 12.1 C 0 km/h
718 20-05-2010 23:37:03 11.7 C 7.64 g/m*3 11.7 C 0 km/h
719 20-05-2010 23:49:03 11.4 C 7.6 g/m*3 11.4 C 0 km/h
720 21-05-2010 00:01:03 11.1 C 7.45 g/m*3 11.1 C 0 km/h
721 21-05-2010 00:13:03 10.7 C 7.27 g/m*3 10.7 C 0 km/h
722 21-05-2010 00:25:03 10.6 C 7.32 g/m*3 10.6 C 0 km/h
723 21-05-2010 00:37:03 10.5 C 7.27 g/m*3 10.5 C 0 km/h
724 21-05-2010 00:49:03 10.3 C 7.18 g/m*3 10.3 C 0 km/h
725 21-05-2010 01:01:03 10.1 C 7.19 g/m*3 10.1 C 0 km/h
Sensor: Nr:Datum:Temp:Abs-Feuchte:Windchill:Wind:
Aussen-T/F 726 21-05-2010 01:13:03 10.1 C 7.28 g/m*3 10.1 C 0 km/h
727 21-05-2010 01:25:03 10.2 C 7.33 g/m*3 10.2 C 0 km/h
728 21-05-2010 01:37:03 10.2 C 7.33 g/m*3 10.2 C 0 km/h
729 21-05-2010 01:49:03 10.1 C 7.38 g/m*3 10.1 C 0 km/h
730 21-05-2010 02:01:03 10 C 7.33 g/m*3 10 C 0 km/h
731 21-05-2010 02:13:03 9.7 C 7.28 g/m*3 9.7 C 0 km/h
732 21-05-2010 02:25:03 9.5 C 7.28 g/m*3 9.5 C 0 km/h
733 21-05-2010 02:37:03 9.2 C 7.23 g/m*3 9.2 C 0 km/h
734 21-05-2010 02:49:04 9.1 C 7.19 g/m*3 9.1 C 0 km/h
735 21-05-2010 03:01:04 9 C 7.23 g/m*3 9 C 0 km/h
736 21-05-2010 03:13:04 8.8 C 7.31 g/m*3 8.8 C 0 km/h
737 21-05-2010 03:25:04 8.6 C 7.22 g/m*3 8.6 C 0 km/h
738 21-05-2010 03:37:04 8.5 C 7.34 g/m*3 8.5 C 0 km/h
739 21-05-2010 03:49:04 8.2 C 7.2 g/m*3 8.2 C 0 km/h
740 21-05-2010 04:01:04 8.1 C 7.16 g/m*3 8.1 C 0 km/h
741 21-05-2010 04:13:04 8 C 7.11 g/m*3 8 C 0 km/h
742 21-05-2010 04:25:04 7.9 C 7.15 g/m*3 7.9 C 0 km/h
743 21-05-2010 04:37:04 7.8 C 7.1 g/m*3 7.8 C 0 km/h
744 21-05-2010 04:49:04 7.6 C 7.09 g/m*3 7.6 C 0 km/h
745 21-05-2010 05:01:04 8.1 C 7.32 g/m*3 8.1 C 0 km/h
746 21-05-2010 05:13:04 8.2 C 7.37 g/m*3 8.2 C 0 km/h
747 21-05-2010 05:25:04 8.2 C 7.37 g/m*3 8.2 C 0 km/h
748 21-05-2010 05:37:04 8.1 C 7.32 g/m*3 8.1 C 0 km/h
749 21-05-2010 05:49:04 7.9 C 7.23 g/m*3 7.9 C 0 km/h
750 21-05-2010 06:01:04 7.8 C 7.26 g/m*3 7.8 C 0 km/h
Sensor: Nr:Datum:Temp:Abs-Feuchte:Windchill:Wind:
Aussen-T/F 751 21-05-2010 06:13:04 7.9 C 7.39 g/m*3 7.9 C 0 km/h
752 21-05-2010 06:25:04 8 C 7.36 g/m*3 8 C 0 km/h
753 21-05-2010 06:37:04 8.2 C 7.45 g/m*3 8.2 C 0 km/h
754 21-05-2010 06:49:04 8.5 C 7.68 g/m*3 8.5 C 0 km/h
755 21-05-2010 07:01:02 8.7 C 7.78 g/m*3 8.7 C 0 km/h
756 21-05-2010 07:13:02 8.6 C 7.65 g/m*3 8.6 C 0 km/h
757 21-05-2010 07:25:03 8.4 C 7.47 g/m*3 8.4 C 0 km/h
758 21-05-2010 07:37:02 8.4 C 7.47 g/m*3 8.4 C 0 km/h
759 21-05-2010 07:49:02 8.5 C 7.51 g/m*3 8.5 C 0 km/h
760 21-05-2010 08:01:02 8.7 C 7.52 g/m*3 8.7 C 0 km/h
761 21-05-2010 08:13:02 8.8 C 7.57 g/m*3 8.8 C 0 km/h
762 21-05-2010 08:25:02 9.2 C 7.5 g/m*3 9.2 C 0 km/h
763 21-05-2010 08:37:03 9.6 C 7.6 g/m*3 9.6 C 0 km/h
764 21-05-2010 08:49:02 9.7 C 7.56 g/m*3 9.7 C 0 km/h
765 21-05-2010 09:01:01 9.9 C 7.66 g/m*3 9.9 C 0 km/h
766 21-05-2010 09:13:01 10.2 C 7.71 g/m*3 10.2 C 0 km/h
767 21-05-2010 09:25:02 10.6 C 7.91 g/m*3 10.6 C 0 km/h
768 21-05-2010 09:37:02 11.4 C 8.11 g/m*3 11.4 C 0 km/h
769 21-05-2010 09:49:02 12 C 8.1 g/m*3 12 C 0 km/h
770 21-05-2010 10:01:03 12.8 C 8.4 g/m*3 12.8 C 0 km/h
771 21-05-2010 10:13:03 13.6 C 8.47 g/m*3 13.6 C 0 km/h
772 21-05-2010 10:25:02 14.5 C 8.46 g/m*3 14.5 C 0 km/h
773 21-05-2010 10:37:03 15.5 C 8.2 g/m*3 15.5 C 0 km/h
774 21-05-2010 10:49:02 16.5 C 7.72 g/m*3 16.5 C 0 km/h
775 21-05-2010 11:01:02 17.2 C 7.47 g/m*3 17.2 C 0 km/h
Sensor: Nr:Datum:Temp:Abs-Feuchte:Windchill:Wind:
Aussen-T/F 776 21-05-2010 11:13:02 17.8 C 7.59 g/m*3 17.8 C 0 km/h
777 21-05-2010 11:25:01 18.6 C 7.48 g/m*3 18.6 C 0 km/h
778 21-05-2010 11:37:02 19.2 C 7.42 g/m*3 19.2 C 0 km/h
779 21-05-2010 11:49:02 19.5 C 6.71 g/m*3 19.5 C 0 km/h
780 21-05-2010 12:01:02 19.2 C 6.27 g/m*3 19.2 C 0 km/h
781 21-05-2010 12:13:02 20.6 C 6.62 g/m*3 20.6 C 0 km/h
782 21-05-2010 12:25:02 20.9 C 6.19 g/m*3 20.9 C 0 km/h
783 21-05-2010 12:37:02 20.8 C 5.61 g/m*3 20.8 C 0 km/h
784 21-05-2010 12:49:02 21.2 C 5.37 g/m*3 21.2 C 0 km/h
785 21-05-2010 13:01:02 21.9 C 5.79 g/m*3 21.9 C 0 km/h
786 21-05-2010 13:13:02 23.7 C 5.35 g/m*3 23.7 C 0 km/h
787 21-05-2010 13:25:02 24.8 C 5.01 g/m*3 24.8 C 0 km/h
788 21-05-2010 13:37:02 25.2 C 4.89 g/m*3 25.2 C 0 km/h
789 21-05-2010 13:49:02 23.3 C 4.39 g/m*3 23.3 C 0 km/h
790 21-05-2010 14:01:02 23.1 C 5.17 g/m*3 23.1 C 0 km/h
791 21-05-2010 14:13:02 23.5 C 5.29 g/m*3 23.5 C 0 km/h
792 21-05-2010 14:25:02 24.4 C 5.12 g/m*3 24.4 C 0 km/h
793 21-05-2010 14:37:02 23.8 C 4.95 g/m*3 23.8 C 0 km/h
794 21-05-2010 14:49:02 24.6 C 5.63 g/m*3 24.6 C 0 km/h
795 21-05-2010 15:01:02 23.9 C 4.98 g/m*3 23.9 C 0 km/h
796 21-05-2010 15:13:02 25.2 C 5.12 g/m*3 25.2 C 0 km/h
797 21-05-2010 15:25:03 25.8 C 5.54 g/m*3 25.8 C 0 km/h
798 21-05-2010 15:37:02 25.7 C 4.79 g/m*3 25.7 C 0 km/h
799 21-05-2010 15:49:02 26.5 C 5.26 g/m*3 26.5 C 0 km/h
800 21-05-2010 16:01:02 26.3 C 4.95 g/m*3 26.3 C 0 km/h
Sensor: Nr:Datum:Temp:Abs-Feuchte:Windchill:Wind:
Aussen-T/F 801 21-05-2010 16:13:02 24.4 C 4.9 g/m*3 24.4 C 0 km/h
802 21-05-2010 16:25:02 25.3 C 4.92 g/m*3 25.3 C 0 km/h
803 21-05-2010 16:37:02 25 C 4.83 g/m*3 25 C 0 km/h
804 21-05-2010 16:49:02 25.4 C 4.71 g/m*3 25.4 C 0 km/h
805 21-05-2010 17:01:02 26.4 C 4.98 g/m*3 26.4 C 0 km/h
806 21-05-2010 17:13:02 25.7 C 4.79 g/m*3 25.7 C 0 km/h
807 21-05-2010 17:25:02 26.1 C 4.9 g/m*3 26.1 C 0 km/h
808 21-05-2010 17:37:02 26.7 C 5.06 g/m*3 26.7 C 0 km/h
809 21-05-2010 17:49:02 25.8 C 4.82 g/m*3 25.8 C 0 km/h
810 21-05-2010 18:01:01 26.4 C 4.98 g/m*3 26.4 C 0 km/h
811 21-05-2010 18:13:01 27 C 5.15 g/m*3 27 C 0 km/h
812 21-05-2010 18:25:02 26.2 C 4.92 g/m*3 26.2 C 0 km/h
813 21-05-2010 18:37:02 25.3 C 4.92 g/m*3 25.3 C 0 km/h
814 21-05-2010 18:49:02 24.8 C 5.24 g/m*3 24.8 C 0 km/h
815 21-05-2010 19:01:01 24.9 C 5.72 g/m*3 24.9 C 0 km/h
816 21-05-2010 19:13:01 24.6 C 5.63 g/m*3 24.6 C 0 km/h
817 21-05-2010 19:25:01 24.6 C 5.85 g/m*3 24.6 C 0 km/h
818 21-05-2010 19:37:02 24.1 C 5.69 g/m*3 24.1 C 0 km/h
819 21-05-2010 19:49:02 24 C 6.09 g/m*3 24 C 0 km/h
820 21-05-2010 20:01:02 23.6 C 5.96 g/m*3 23.6 C 0 km/h
821 21-05-2010 20:13:02 23.3 C 6.27 g/m*3 23.3 C 0 km/h
822 21-05-2010 20:25:02 22.9 C 6.34 g/m*3 22.9 C 0 km/h
823 21-05-2010 20:37:02 22.3 C 6.12 g/m*3 22.3 C 0 km/h
824 21-05-2010 20:49:02 21.2 C 6.49 g/m*3 21.2 C 0 km/h
825 21-05-2010 21:01:03 20.8 C 6.52 g/m*3 20.8 C 0 km/h
Sensor: Nr:Datum:Temp:Abs-Feuchte:Windchill:Wind:
Aussen-T/F 826 21-05-2010 21:13:03 20.4 C 6.55 g/m*3 20.4 C 0 km/h
827 21-05-2010 21:25:03 20 C 6.57 g/m*3 20 C 0 km/h
828 21-05-2010 21:37:03 19.8 C 6.66 g/m*3 19.8 C 0 km/h
829 21-05-2010 21:49:02 19.4 C 6.67 g/m*3 19.4 C 0 km/h
830 21-05-2010 22:01:02 18.9 C 6.97 g/m*3 18.9 C 0 km/h
831 21-05-2010 22:13:02 18.4 C 6.92 g/m*3 18.4 C 0 km/h
832 21-05-2010 22:25:02 18.2 C 7.15 g/m*3 18.2 C 0 km/h
833 21-05-2010 22:37:02 17.9 C 7.33 g/m*3 17.9 C 0 km/h
834 21-05-2010 22:49:02 17 C 7.38 g/m*3 17 C 0 km/h
835 21-05-2010 23:01:02 17 C 7.23 g/m*3 17 C 0 km/h
836 21-05-2010 23:13:02 16.4 C 7.12 g/m*3 16.4 C 0 km/h
837 21-05-2010 23:25:02 16.2 C 7.17 g/m*3 16.2 C 0 km/h
838 21-05-2010 23:38:04 15.9 C 7.31 g/m*3 15.9 C 0 km/h
839 21-05-2010 23:50:04 15.8 C 7.54 g/m*3 15.8 C 0 km/h

Legende:
   Min
   Max


Maximal/Minimal-Werte vom 15.05.2010 - 21.05.2010

Sensor Min Max Avg
Temp
(Aussen-T/F)
5.7 °C
18-05-2010  03:22:04
27 °C
21-05-2010  18:13:01
12.22 °C
Abs-Feuchte
(Aussen-T/F)
2.47 g/m*3
15-05-2010  16:31:01
10.05 g/m*3
17-05-2010  16:09:01
6.03 g/m*3
Windchill
(Aussen-T/F)
5.7 C
18-05-2010  03:22:04
27 C
21-05-2010  18:13:01
12.2 C

Die Daten stammen von einer Davis Vantage Pro 2 Wetter-Station und werden unter Linux mit der Software wview2wettercgi und aufbereitet. Alle Angaben erfolgen ohne Gewähr für ihre Vollständigkeit oder Richtigkeit.
Kontakt: Rainer Krienke krienke@uni-koblenz.de . Meine Webseiten an der Uni Koblenz oder privat.
Version: $Revision: 0.78 $